createdAt,value
2023-02-12T00:00:10.086Z,101760.63
2023-02-12T00:02:43.135Z,101758.03
2023-02-12T00:05:10.126Z,101747.69
2023-02-12T00:07:37.030Z,101755.16
2023-02-12T00:10:04.580Z,101753.34
2023-02-12T00:12:31.438Z,101749.16
2023-02-12T00:14:58.307Z,101746.69
2023-02-12T00:17:25.187Z,101739.50
2023-02-12T00:19:52.098Z,101745.59
2023-02-12T00:22:18.986Z,101745.91
2023-02-12T00:24:45.872Z,101746.69
2023-02-12T00:27:12.933Z,101748.84
2023-02-12T00:29:39.912Z,101750.69
2023-02-12T00:32:07.532Z,101748.91
2023-02-12T00:34:34.432Z,101749.22
2023-02-12T00:37:01.298Z,101741.59
2023-02-12T00:39:28.237Z,101743.88
2023-02-12T00:41:55.162Z,101732.63
2023-02-12T00:44:22.109Z,101730.72
2023-02-12T00:46:49.120Z,101733.00
2023-02-12T00:49:19.130Z,101725.47
2023-02-12T00:51:46.609Z,101732.28
2023-02-12T00:54:13.482Z,101736.50
2023-02-12T00:56:40.539Z,101730.63
2023-02-12T00:59:07.574Z,101728.44
2023-02-12T01:01:35.727Z,101713.44
2023-02-12T01:04:03.858Z,101718.41
2023-02-12T01:06:30.742Z,101711.63
2023-02-12T01:08:57.734Z,101707.41
2023-02-12T01:11:24.623Z,101705.59
2023-02-12T01:13:52.443Z,101715.72
2023-02-12T01:16:22.618Z,101709.22
2023-02-12T01:18:52.166Z,101711.00
2023-02-12T01:21:23.342Z,101709.09
2023-02-12T01:23:50.457Z,101708.50
2023-02-12T01:26:19.188Z,101697.72
2023-02-12T01:28:50.850Z,101699.44
2023-02-12T01:31:21.707Z,101700.56
2023-02-12T01:33:53.367Z,101699.22
2023-02-12T01:36:21.181Z,101702.06
2023-02-12T01:38:49.038Z,101691.59
2023-02-12T01:41:21.658Z,101694.50
2023-02-12T01:44:07.162Z,101693.47
2023-02-12T01:46:34.157Z,101694.28
2023-02-12T01:49:03.609Z,101683.56
2023-02-12T01:51:32.103Z,101696.91
2023-02-12T01:54:01.824Z,101697.41
2023-02-12T01:56:29.954Z,101686.28
2023-02-12T01:58:57.891Z,101683.94
2023-02-12T02:01:28.937Z,101685.25
2023-02-12T02:04:05.505Z,101681.84
2023-02-12T02:06:36.200Z,101686.06
2023-02-12T02:09:04.566Z,101683.97
2023-02-12T02:11:50.754Z,101686.09
2023-02-12T02:14:33.203Z,101681.41
2023-02-12T02:17:31.293Z,101685.25
2023-02-12T02:20:04.227Z,101682.34
2023-02-12T02:22:33.863Z,101676.84
2023-02-12T02:25:03.707Z,101675.69
2023-02-12T02:27:36.042Z,101675.41
2023-02-12T02:30:57.149Z,101676.72
2023-02-12T02:33:56.167Z,101681.53
2023-02-12T02:36:59.652Z,101684.16
2023-02-12T02:40:05.859Z,101688.03
2023-02-12T02:42:58.690Z,101694.38
2023-02-12T02:45:34.076Z,101693.06
2023-02-12T02:48:06.968Z,101684.50
2023-02-12T02:50:38.452Z,101692.03
2023-02-12T02:53:13.482Z,101683.75
2023-02-12T02:55:57.286Z,101685.59
2023-02-12T02:58:30.861Z,101687.00
2023-02-12T03:01:05.968Z,101683.84
2023-02-12T03:03:38.654Z,101687.47
2023-02-12T03:06:18.681Z,101690.72
2023-02-12T03:08:54.555Z,101689.66
2023-02-12T03:11:24.540Z,101689.53
2023-02-12T03:14:08.009Z,101688.34
2023-02-12T03:16:39.604Z,101691.84
2023-02-12T03:19:17.162Z,101690.53
2023-02-12T03:21:49.906Z,101702.56
2023-02-12T03:24:28.917Z,101700.59
2023-02-12T03:27:09.265Z,101699.03
2023-02-12T03:29:36.377Z,101687.03
2023-02-12T03:32:28.027Z,101692.88
2023-02-12T03:35:23.916Z,101689.31
2023-02-12T03:38:04.149Z,101681.97
2023-02-12T03:40:51.503Z,101684.88
2023-02-12T03:43:42.848Z,101695.94
2023-02-12T03:46:24.987Z,101700.13
2023-02-12T03:49:07.336Z,101688.25
2023-02-12T03:51:39.714Z,101698.97
2023-02-12T03:54:09.434Z,101698.00
2023-02-12T03:56:52.205Z,101696.69
2023-02-12T03:59:21.438Z,101689.88
2023-02-12T04:01:50.532Z,101687.97
2023-02-12T04:04:17.684Z,101687.31
2023-02-12T04:06:47.936Z,101685.31
2023-02-12T04:09:15.717Z,101683.69
2023-02-12T04:12:07.124Z,101683.78
2023-02-12T04:15:12.424Z,101683.09
2023-02-12T04:18:02.650Z,101696.75
2023-02-12T04:20:44.745Z,101696.22
2023-02-12T04:23:18.096Z,101695.72
2023-02-12T04:26:03.048Z,101693.28
2023-02-12T04:29:14.659Z,101698.41
2023-02-12T04:31:47.675Z,101705.50
2023-02-12T04:34:44.386Z,101707.38
2023-02-12T04:37:19.651Z,101706.16
2023-02-12T04:39:48.218Z,101713.34
2023-02-12T04:42:15.674Z,101715.56
2023-02-12T04:44:44.433Z,101724.53
2023-02-12T04:47:16.361Z,101723.78
2023-02-12T04:49:43.517Z,101725.78
2023-02-12T04:52:10.458Z,101715.84
2023-02-12T04:54:37.608Z,101713.03
2023-02-12T04:57:04.578Z,101736.84
2023-02-12T04:59:31.497Z,101733.19
2023-02-12T05:01:58.515Z,101740.97
2023-02-12T05:04:25.425Z,101739.69
2023-02-12T05:06:52.260Z,101744.53
2023-02-12T05:09:20.478Z,101745.53
2023-02-12T05:11:47.521Z,101747.63
2023-02-12T05:14:14.848Z,101742.75
2023-02-12T05:16:41.756Z,101751.34
2023-02-12T05:19:09.735Z,101746.53
2023-02-12T05:21:38.000Z,101755.75
2023-02-12T05:24:05.626Z,101749.38
2023-02-12T05:26:32.826Z,101753.41
2023-02-12T05:28:59.751Z,101758.94
2023-02-12T05:31:27.126Z,101759.03
2023-02-12T05:33:54.132Z,101760.19
2023-02-12T05:36:23.946Z,101762.84
2023-02-12T05:38:56.881Z,101767.19
2023-02-12T05:41:25.439Z,101771.16
2023-02-12T05:43:53.180Z,101774.66
2023-02-12T05:46:22.127Z,101778.69
2023-02-12T05:48:49.312Z,101773.56
2023-02-12T05:51:20.069Z,101784.97
2023-02-12T05:53:47.500Z,101778.53
2023-02-12T05:56:20.435Z,101784.22
2023-02-12T05:58:52.446Z,101799.06
2023-02-12T06:01:23.079Z,101804.25
2023-02-12T06:03:49.973Z,101804.75
2023-02-12T06:06:16.894Z,101795.03
2023-02-12T06:08:44.265Z,101799.22
2023-02-12T06:11:14.284Z,101807.91
2023-02-12T06:13:41.573Z,101808.84
2023-02-12T06:16:16.604Z,101808.41
2023-02-12T06:18:43.471Z,101807.03
2023-02-12T06:21:10.408Z,101807.28
2023-02-12T06:23:37.333Z,101800.53
2023-02-12T06:26:04.542Z,101789.91
2023-02-12T06:28:31.456Z,101807.31
2023-02-12T06:30:58.513Z,101808.47
2023-02-12T06:33:25.481Z,101818.38
2023-02-12T06:35:52.358Z,101820.81
2023-02-12T06:38:19.285Z,101825.06
2023-02-12T06:40:46.229Z,101836.00
2023-02-12T06:43:13.132Z,101835.50
2023-02-12T06:45:40.149Z,101818.19
2023-02-12T06:48:07.181Z,101829.16
2023-02-12T06:50:34.233Z,101832.91
2023-02-12T06:53:01.155Z,101818.78
2023-02-12T06:55:28.064Z,101820.94
2023-02-12T06:57:54.981Z,101827.19
2023-02-12T07:00:22.374Z,101834.78
2023-02-12T07:02:54.526Z,101836.00
2023-02-12T07:05:22.134Z,101830.19
2023-02-12T07:07:49.036Z,101818.69
2023-02-12T07:10:16.202Z,101818.00
2023-02-12T07:12:43.117Z,101826.16
2023-02-12T07:15:10.909Z,101835.25
2023-02-12T07:17:38.039Z,101828.66
2023-02-12T07:20:05.733Z,101822.44
2023-02-12T07:22:36.193Z,101832.34
2023-02-12T07:25:03.278Z,101829.56
2023-02-12T07:27:30.200Z,101840.84
2023-02-12T07:29:57.061Z,101847.16
2023-02-12T07:32:23.922Z,101846.22
2023-02-12T07:34:50.802Z,101842.13
2023-02-12T07:37:22.717Z,101837.47
2023-02-12T07:39:50.287Z,101844.16
2023-02-12T07:42:17.941Z,101845.50
2023-02-12T07:44:49.728Z,101858.22
2023-02-12T07:47:17.187Z,101854.19
2023-02-12T07:49:44.368Z,101856.88
2023-02-12T07:52:13.371Z,101857.97
2023-02-12T07:54:40.469Z,101865.09
2023-02-12T07:57:07.334Z,101855.56
2023-02-12T07:59:34.220Z,101852.56
2023-02-12T08:02:01.387Z,101857.38
2023-02-12T08:04:28.443Z,101854.06
2023-02-12T08:06:56.591Z,101859.66
2023-02-12T08:09:27.148Z,101868.44
2023-02-12T08:11:54.444Z,101864.47
2023-02-12T08:14:22.257Z,101869.97
2023-02-12T08:16:50.696Z,101866.22
2023-02-12T08:19:22.526Z,101876.84
2023-02-12T08:21:53.228Z,101874.38
2023-02-12T08:24:22.213Z,101877.66
2023-02-12T08:26:49.850Z,101879.44
2023-02-12T08:29:19.240Z,101872.47
2023-02-12T08:31:48.798Z,101873.19
2023-02-12T08:34:20.945Z,101882.97
2023-02-12T08:36:49.710Z,101883.88
2023-02-12T08:39:18.088Z,101880.38
2023-02-12T08:41:45.627Z,101882.22
2023-02-12T08:44:13.511Z,101873.03
2023-02-12T08:46:44.537Z,101882.88
2023-02-12T08:49:14.903Z,101882.41
2023-02-12T08:51:44.349Z,101884.97
2023-02-12T08:54:18.093Z,101887.84
2023-02-12T08:56:45.631Z,101886.84
2023-02-12T08:59:13.725Z,101895.09
2023-02-12T09:01:44.374Z,101891.09
2023-02-12T09:04:18.190Z,101884.66
2023-02-12T09:06:46.749Z,101889.06
2023-02-12T09:09:14.416Z,101890.53
2023-02-12T09:11:41.608Z,101894.59
2023-02-12T09:14:12.500Z,101896.47
2023-02-12T09:16:40.642Z,101897.97
2023-02-12T09:19:09.304Z,101902.84
2023-02-12T09:21:36.243Z,101908.69
2023-02-12T09:24:03.806Z,101910.28
2023-02-12T09:26:31.090Z,101907.41
2023-02-12T09:28:58.551Z,101909.25
2023-02-12T09:31:29.173Z,101914.38
2023-02-12T09:34:03.697Z,101915.50
2023-02-12T09:36:31.711Z,101926.53
2023-02-12T09:39:00.155Z,101921.59
2023-02-12T09:41:45.024Z,101906.13
2023-02-12T09:44:22.100Z,101916.88
2023-02-12T09:46:54.204Z,101917.69
2023-02-12T09:49:48.728Z,101921.84
2023-02-12T09:52:22.528Z,101916.19
2023-02-12T09:54:50.633Z,101921.56
2023-02-12T09:57:23.986Z,101917.88
2023-02-12T10:00:17.086Z,101923.38
2023-02-12T10:02:44.148Z,101931.09
2023-02-12T10:05:18.988Z,101934.69
2023-02-12T10:08:16.133Z,101930.50
2023-02-12T10:10:48.580Z,101929.34
2023-02-12T10:13:27.754Z,101933.38
2023-02-12T10:16:13.182Z,101931.88
2023-02-12T10:18:56.025Z,101934.75
2023-02-12T10:21:48.140Z,101932.84
2023-02-12T10:24:37.450Z,101927.25
2023-02-12T10:27:13.276Z,101936.66
2023-02-12T10:29:44.697Z,101937.97
2023-02-12T10:32:35.766Z,101936.88
2023-02-12T10:35:14.060Z,101935.91
2023-02-12T10:37:49.214Z,101938.00
2023-02-12T10:40:27.751Z,101940.66
2023-02-12T10:42:55.014Z,101941.22
2023-02-12T10:45:26.610Z,101938.63
2023-02-12T10:48:23.119Z,101932.06
2023-02-12T10:51:10.285Z,101934.91
2023-02-12T10:53:42.676Z,101945.06
2023-02-12T10:56:15.418Z,101942.50
2023-02-12T10:59:02.752Z,101951.88
2023-02-12T11:01:34.189Z,101954.75
2023-02-12T11:04:20.968Z,101955.88
2023-02-12T11:07:04.280Z,101961.19
2023-02-12T11:09:36.218Z,101962.22
2023-02-12T11:12:04.114Z,101960.88
2023-02-12T11:14:31.190Z,101955.88
2023-02-12T11:17:00.348Z,101954.94
2023-02-12T11:19:29.844Z,101946.88
2023-02-12T11:22:19.015Z,101952.31
2023-02-12T11:24:49.635Z,101948.06
2023-02-12T11:27:16.430Z,101949.47
2023-02-12T11:29:44.742Z,101952.00
2023-02-12T11:32:17.702Z,101946.50
2023-02-12T11:34:44.838Z,101939.97
2023-02-12T11:37:18.306Z,101942.16
2023-02-12T11:39:50.504Z,101947.38
2023-02-12T11:42:24.497Z,101936.72
2023-02-12T11:44:55.265Z,101935.22
2023-02-12T11:47:25.921Z,101945.66
2023-02-12T11:49:57.004Z,101936.25
2023-02-12T11:52:31.497Z,101945.69
2023-02-12T11:55:05.167Z,101933.75
2023-02-12T11:57:39.907Z,101933.78
2023-02-12T12:00:19.605Z,101943.44
2023-02-12T12:03:21.594Z,101948.97
2023-02-12T12:05:54.966Z,101953.34
2023-02-12T12:08:29.367Z,101958.41
2023-02-12T12:11:09.680Z,101958.41
2023-02-12T12:13:53.985Z,101960.66
2023-02-12T12:16:56.877Z,101970.44
2023-02-12T12:19:52.903Z,101961.25
2023-02-12T12:22:38.617Z,101970.16
2023-02-12T12:25:27.375Z,101968.66
2023-02-12T12:28:29.786Z,101972.84
2023-02-12T12:31:12.585Z,101966.75
2023-02-12T12:33:51.727Z,101987.31
2023-02-12T12:36:42.658Z,101977.75
2023-02-12T12:39:47.901Z,101977.88
2023-02-12T12:42:56.137Z,101978.31
2023-02-12T12:45:34.746Z,101993.22
2023-02-12T12:48:13.312Z,101990.53
2023-02-12T12:51:26.709Z,101997.50
2023-02-12T12:53:56.741Z,101994.94
2023-02-12T12:56:54.609Z,102000.41
2023-02-12T12:59:30.451Z,102002.44
2023-02-12T13:02:18.749Z,102002.00
2023-02-12T13:05:11.714Z,102003.22
2023-02-12T13:08:00.645Z,102010.34
2023-02-12T13:10:45.978Z,102008.75
2023-02-12T13:13:30.296Z,102009.41
2023-02-12T13:15:57.438Z,102012.50
2023-02-12T13:18:24.468Z,102021.81
2023-02-12T13:21:04.343Z,102030.00
2023-02-12T13:23:40.170Z,102034.34
2023-02-12T13:26:31.227Z,102032.84
2023-02-12T13:29:15.255Z,102040.75
2023-02-12T13:31:49.955Z,102038.34
2023-02-12T13:34:19.031Z,102034.22
2023-02-12T13:36:47.060Z,102029.06
2023-02-12T13:39:27.674Z,102043.00
2023-02-12T13:42:19.623Z,102044.78
2023-02-12T13:45:03.308Z,102048.34
2023-02-12T13:47:35.790Z,102067.34
2023-02-12T13:50:02.683Z,102074.09
2023-02-12T13:52:41.706Z,102076.50
2023-02-12T13:55:20.235Z,102078.69
2023-02-12T13:57:47.212Z,102088.94
2023-02-12T14:00:48.068Z,102085.44
2023-02-12T14:03:15.194Z,102087.16
2023-02-12T14:05:42.646Z,102085.88
2023-02-12T14:08:34.943Z,102095.88
2023-02-12T14:11:09.274Z,102088.50
2023-02-12T14:13:52.114Z,102090.75
2023-02-12T14:16:40.730Z,102092.16
2023-02-12T14:19:38.476Z,102102.31
2023-02-12T14:22:14.185Z,102102.66
2023-02-12T14:24:49.355Z,102096.34
2023-02-12T14:27:19.616Z,102097.84
2023-02-12T14:30:25.844Z,102105.84
2023-02-12T14:32:56.013Z,102112.16
2023-02-12T14:35:40.693Z,102115.00
2023-02-12T14:38:16.735Z,102113.53
2023-02-12T14:40:50.649Z,102115.44
2023-02-12T14:43:31.391Z,102122.28
2023-02-12T14:46:24.268Z,102124.00
2023-02-12T14:48:51.228Z,102140.69
2023-02-12T14:51:31.742Z,102147.53
2023-02-12T14:53:59.394Z,102140.47
2023-02-12T14:56:27.271Z,102151.75
2023-02-12T14:58:59.030Z,102140.44
2023-02-12T15:01:34.235Z,102146.84
2023-02-12T15:04:17.340Z,102149.72
2023-02-12T15:06:53.947Z,102155.78
2023-02-12T15:09:36.548Z,102169.94
2023-02-12T15:12:11.132Z,102168.84
2023-02-12T15:14:46.557Z,102181.19
2023-02-12T15:17:35.350Z,102193.75
2023-02-12T15:20:08.341Z,102194.03
2023-02-12T15:22:38.274Z,102192.56
2023-02-12T15:25:25.296Z,102205.47
2023-02-12T15:27:56.394Z,102209.19
2023-02-12T15:30:35.319Z,102215.53
2023-02-12T15:33:05.894Z,102221.72
2023-02-12T15:35:36.064Z,102226.88
2023-02-12T15:38:04.361Z,102232.16
2023-02-12T15:40:32.047Z,102234.91
2023-02-12T15:43:03.042Z,102232.47
2023-02-12T15:45:35.365Z,102239.00
2023-02-12T15:48:10.509Z,102243.66
2023-02-12T15:51:04.492Z,102250.03
2023-02-12T15:53:31.500Z,102262.47
2023-02-12T15:55:59.676Z,102262.47
2023-02-12T15:58:49.962Z,102269.47
2023-02-12T16:01:25.734Z,102278.66
2023-02-12T16:03:55.857Z,102277.28
2023-02-12T16:06:26.224Z,102276.31
2023-02-12T16:09:02.434Z,102280.31
2023-02-12T16:11:31.657Z,102286.53
2023-02-12T16:14:01.478Z,102300.97
2023-02-12T16:16:41.004Z,102305.03
2023-02-12T16:19:08.003Z,102308.44
2023-02-12T16:21:38.551Z,102314.63
2023-02-12T16:24:06.250Z,102314.75
2023-02-12T16:26:33.248Z,102314.31
2023-02-12T16:29:00.157Z,102326.97
2023-02-12T16:31:28.057Z,102326.97
2023-02-12T16:33:58.646Z,102324.09
2023-02-12T16:36:25.455Z,102334.25
2023-02-12T16:39:04.079Z,102347.94
2023-02-12T16:41:32.642Z,102347.03
2023-02-12T16:44:02.351Z,102351.66
2023-02-12T16:46:32.744Z,102358.06
2023-02-12T16:49:02.384Z,102357.34
2023-02-12T16:51:33.652Z,102365.13
2023-02-12T16:54:02.952Z,102378.44
2023-02-12T16:56:38.752Z,102376.91
2023-02-12T16:59:06.803Z,102369.47
2023-02-12T17:01:36.751Z,102368.06
2023-02-12T17:04:09.022Z,102379.50
2023-02-12T17:06:36.137Z,102384.16
2023-02-12T17:09:03.172Z,102392.50
2023-02-12T17:11:30.184Z,102408.59
2023-02-12T17:13:57.322Z,102407.66
2023-02-12T17:16:30.733Z,102414.91
2023-02-12T17:18:59.510Z,102430.94
2023-02-12T17:21:53.044Z,102434.06
2023-02-12T17:24:22.838Z,102432.81
2023-02-12T17:26:50.891Z,102443.13
2023-02-12T17:29:18.839Z,102443.38
2023-02-12T17:31:46.274Z,102448.53
2023-02-12T17:34:13.811Z,102447.63
2023-02-12T17:36:41.148Z,102450.75
2023-02-12T17:39:09.538Z,102464.81
2023-02-12T17:41:37.586Z,102469.09
2023-02-12T17:44:04.745Z,102470.44
2023-02-12T17:46:32.119Z,102473.19
2023-02-12T17:48:59.146Z,102474.41
2023-02-12T17:51:26.667Z,102474.97
2023-02-12T17:53:53.778Z,102482.66
2023-02-12T17:56:22.957Z,102482.34
2023-02-12T17:58:50.141Z,102483.03
2023-02-12T18:01:19.785Z,102491.22
2023-02-12T18:03:47.111Z,102488.63
2023-02-12T18:06:16.736Z,102490.94
2023-02-12T18:08:43.981Z,102492.56
2023-02-12T18:11:11.893Z,102498.69
2023-02-12T18:13:39.625Z,102505.53
2023-02-12T18:16:08.946Z,102501.00
2023-02-12T18:18:36.751Z,102511.91
2023-02-12T18:21:11.985Z,102528.59
2023-02-12T18:23:39.593Z,102527.63
2023-02-12T18:26:09.186Z,102532.19
2023-02-12T18:28:36.694Z,102537.28
2023-02-12T18:31:04.819Z,102542.31
2023-02-12T18:33:32.245Z,102539.22
2023-02-12T18:36:05.883Z,102546.88
2023-02-12T18:38:35.384Z,102542.56
2023-02-12T18:41:09.460Z,102547.41
2023-02-12T18:43:37.230Z,102542.78
2023-02-12T18:46:19.743Z,102541.25
2023-02-12T18:48:47.543Z,102545.44
2023-02-12T18:51:17.806Z,102554.63
2023-02-12T18:53:45.172Z,102560.13
2023-02-12T18:56:13.229Z,102563.81
2023-02-12T18:58:40.954Z,102558.28
2023-02-12T19:01:16.175Z,102555.81
2023-02-12T19:03:44.417Z,102561.53
2023-02-12T19:06:11.909Z,102563.72
2023-02-12T19:08:39.445Z,102568.53
2023-02-12T19:11:08.110Z,102573.13
2023-02-12T19:13:35.107Z,102580.59
2023-02-12T19:16:16.220Z,102584.69
2023-02-12T19:18:43.228Z,102589.38
2023-02-12T19:21:13.384Z,102594.41
2023-02-12T19:23:40.577Z,102601.56
2023-02-12T19:26:13.886Z,102593.88
2023-02-12T19:28:42.265Z,102599.75
2023-02-12T19:31:14.184Z,102593.59
2023-02-12T19:33:42.773Z,102595.66
2023-02-12T19:36:12.387Z,102595.97
2023-02-12T19:38:40.508Z,102601.53
2023-02-12T19:41:20.063Z,102605.28
2023-02-12T19:43:47.445Z,102610.09
2023-02-12T19:46:17.741Z,102613.66
2023-02-12T19:48:46.348Z,102610.94
2023-02-12T19:51:18.494Z,102616.31
2023-02-12T19:53:47.207Z,102630.25
2023-02-12T19:56:15.647Z,102623.28
2023-02-12T19:58:43.104Z,102627.31
2023-02-12T20:01:16.709Z,102638.47
2023-02-12T20:03:45.245Z,102639.16
2023-02-12T20:06:16.109Z,102640.06
2023-02-12T20:08:44.391Z,102639.16
2023-02-12T20:11:15.468Z,102641.97
2023-02-12T20:13:42.988Z,102641.19
2023-02-12T20:16:15.947Z,102646.19
2023-02-12T20:18:44.861Z,102650.06
2023-02-12T20:21:34.440Z,102645.22
2023-02-12T20:24:02.396Z,102653.75
2023-02-12T20:26:31.494Z,102661.44
2023-02-12T20:29:00.132Z,102655.47
2023-02-12T20:31:32.548Z,102662.97
2023-02-12T20:34:07.542Z,102663.47
2023-02-12T20:36:38.788Z,102674.72
2023-02-12T20:39:08.312Z,102667.94
2023-02-12T20:41:37.254Z,102667.63
2023-02-12T20:44:06.885Z,102672.31
2023-02-12T20:46:36.284Z,102670.91
2023-02-12T20:49:03.867Z,102674.50
2023-02-12T20:51:31.324Z,102677.56
2023-02-12T20:54:01.324Z,102669.16
2023-02-12T20:56:31.406Z,102668.84
2023-02-12T20:58:59.717Z,102669.06
2023-02-12T21:01:33.010Z,102670.09
2023-02-12T21:04:06.909Z,102663.63
2023-02-12T21:06:34.616Z,102664.75
2023-02-12T21:09:01.857Z,102668.72
2023-02-12T21:11:29.945Z,102667.84
2023-02-12T21:14:07.803Z,102675.00
2023-02-12T21:16:45.552Z,102672.69
2023-02-12T21:19:14.265Z,102667.56
2023-02-12T21:21:42.329Z,102679.69
2023-02-12T21:24:12.893Z,102678.31
2023-02-12T21:26:40.354Z,102676.13
2023-02-12T21:29:07.601Z,102682.31
2023-02-12T21:31:46.263Z,102681.41
2023-02-12T21:34:16.122Z,102689.00
2023-02-12T21:36:47.620Z,102680.59
2023-02-12T21:39:24.512Z,102684.09
2023-02-12T21:41:54.175Z,102695.44
2023-02-12T21:44:22.458Z,102692.56
2023-02-12T21:46:49.793Z,102697.66
2023-02-12T21:49:24.828Z,102699.25
2023-02-12T21:51:54.500Z,102692.94
2023-02-12T21:54:22.713Z,102696.66
2023-02-12T21:56:50.770Z,102696.88
2023-02-12T21:59:18.594Z,102696.75
2023-02-12T22:01:51.563Z,102696.84
2023-02-12T22:04:19.751Z,102697.66
2023-02-12T22:06:49.105Z,102702.53
2023-02-12T22:09:21.194Z,102711.41
2023-02-12T22:11:48.394Z,102710.19
2023-02-12T22:14:17.410Z,102710.28
2023-02-12T22:16:45.522Z,102710.59
2023-02-12T22:19:12.677Z,102724.03
2023-02-12T22:21:41.995Z,102720.81
2023-02-12T22:24:11.718Z,102715.69
2023-02-12T22:26:38.791Z,102720.22
2023-02-12T22:29:09.187Z,102725.94
2023-02-12T22:31:38.191Z,102729.97
2023-02-12T22:34:08.417Z,102730.91
2023-02-12T22:36:37.181Z,102729.00
2023-02-12T22:39:05.004Z,102722.91
2023-02-12T22:41:32.373Z,102729.59
2023-02-12T22:44:00.773Z,102734.19
2023-02-12T22:46:28.172Z,102722.72
2023-02-12T22:48:55.459Z,102728.00
2023-02-12T22:51:24.306Z,102730.69
2023-02-12T22:53:51.613Z,102739.69
2023-02-12T22:56:19.208Z,102738.22
2023-02-12T22:58:46.520Z,102733.19
2023-02-12T23:01:15.956Z,102741.25
2023-02-12T23:03:43.354Z,102728.19
2023-02-12T23:06:22.003Z,102732.38
2023-02-12T23:08:54.800Z,102739.25
2023-02-12T23:11:24.649Z,102747.09
2023-02-12T23:13:52.521Z,102754.13
2023-02-12T23:16:19.560Z,102744.34
2023-02-12T23:18:46.588Z,102733.88
2023-02-12T23:21:13.935Z,102730.22
2023-02-12T23:23:41.185Z,102725.97
2023-02-12T23:26:08.110Z,102731.34
2023-02-12T23:28:35.135Z,102735.06
2023-02-12T23:31:02.737Z,102736.88
2023-02-12T23:33:29.964Z,102729.94
2023-02-12T23:35:56.893Z,102724.69
2023-02-12T23:38:23.764Z,102726.09
2023-02-12T23:40:50.679Z,102736.28
2023-02-12T23:43:17.626Z,102737.09
2023-02-12T23:45:45.564Z,102741.50
2023-02-12T23:48:13.111Z,102737.50
2023-02-12T23:50:40.619Z,102746.09
2023-02-12T23:53:07.729Z,102750.50
2023-02-12T23:55:37.246Z,102751.66
2023-02-12T23:58:05.306Z,102754.47
